map of LPA home
LPA - Airport
Location
City:  Las Palmas, Gran Canaria Island, Canary Islands, Spain
Name:Gran Canaria International Airport
Old (Alt.):Gando Airport
ICAO:GCLP
IATA:LPA

Details
Type:Airport (Aerodrome, Airfield)
Use:Public/Civil, Military, International (customs port of entry)
Latitude:2755'55"N (27.931886)
Longitude:1523'12"W (-15.386585)
Datum:WGS 1984
Elevation:78 ft (24 m)
Variation:4.43W (WMM2015v2 magnetic declination)
0.15 annual change
Runways:2
Longest:10171 × 148 ft (3100 × 45 m), paved

Time
Time Zone:UTC+0 (DST+1)
Local Time:

Weather
METAR:GCLP 041400Z 08004KT 030V120 9000 NSC 20/12 Q1021 NOSIG
TAF:GCLP 040800Z 0409/0509 36012KT 9999 FEW020 TX22/0414Z TN15/0506Z
BECMG 0409/0411 21008KT PROB40
TEMPO 0418/0506 4900 HZ

Related Locations
Nearby:
Farthest:NLK: 12227 mi / 19678 km
Norfolk Island, NF

Find:

   beyond  
but within

Other Information
Maps:
NOTAMs:
Links:
Sources:

  
  • flag of Spain
  • flag of Canary Islands
  • flag of Gran Canaria Island
  

Sectional Chart

Flight Planning
at skyvector.com

Satellite Image

Google Maps Satellite view

 

Copyright © 2004-2019 Karl L. Swartz. All rights reserved.
The Great Circle Mapper name and logo are trademarks of the Great Circle Mapper.
All other trademarks mentioned herein belong to their respective owners.
Please see credits for attibutions and further copyright information.

  Follow gcmap on Facebook Follow gcmap on Twitter GCmap on LinkedIn

hCard Microformat

Geo Microformat